createdAt,value
2023-12-30T00:02:19.872Z,16.60
2023-12-30T00:04:47.056Z,18.10
2023-12-30T00:07:13.919Z,18.23
2023-12-30T00:09:41.489Z,19.13
2023-12-30T00:12:08.464Z,17.15
2023-12-30T00:14:35.388Z,20.00
2023-12-30T00:17:02.237Z,19.08
2023-12-30T00:19:29.371Z,20.02
2023-12-30T00:21:56.538Z,23.45
2023-12-30T00:24:23.588Z,24.10
2023-12-30T00:26:51.561Z,21.92
2023-12-30T00:29:18.557Z,20.92
2023-12-30T00:31:45.456Z,18.98
2023-12-30T00:34:12.825Z,20.00
2023-12-30T00:36:44.658Z,17.75
2023-12-30T00:39:12.188Z,19.05
2023-12-30T00:41:39.196Z,16.75
2023-12-30T00:44:06.213Z,15.23
2023-12-30T00:46:33.056Z,14.60
2023-12-30T00:49:00.164Z,13.50
2023-12-30T00:51:27.141Z,12.15
2023-12-30T00:53:54.071Z,12.13
2023-12-30T00:56:20.900Z,13.88
2023-12-30T00:58:47.673Z,10.95
2023-12-30T01:01:14.590Z,12.38
2023-12-30T01:03:42.067Z,11.40
2023-12-30T01:06:09.529Z,13.98
2023-12-30T01:08:36.866Z,12.48
2023-12-30T01:11:05.047Z,10.75
2023-12-30T01:13:32.215Z,7.28
2023-12-30T01:15:59.135Z,5.85
2023-12-30T01:18:26.793Z,5.90
2023-12-30T01:21:00.026Z,5.97
2023-12-30T01:23:26.855Z,6.53
2023-12-30T01:25:53.767Z,7.40
2023-12-30T01:28:20.698Z,10.65
2023-12-30T01:30:48.509Z,10.10
2023-12-30T01:33:15.357Z,10.55
2023-12-30T01:35:42.273Z,10.32
2023-12-30T01:38:09.033Z,9.65
2023-12-30T01:40:35.970Z,10.20
2023-12-30T01:43:04.599Z,10.50
2023-12-30T01:45:32.093Z,9.90
2023-12-30T01:47:59.765Z,9.32
2023-12-30T01:50:27.716Z,9.15
2023-12-30T01:52:54.794Z,8.30
2023-12-30T01:55:22.051Z,8.52
2023-12-30T01:57:49.806Z,8.40
2023-12-30T02:00:23.166Z,7.43
2023-12-30T02:02:51.269Z,7.93
2023-12-30T02:05:19.366Z,6.57
2023-12-30T02:07:48.047Z,6.93
2023-12-30T02:10:15.143Z,6.85
2023-12-30T02:12:42.135Z,6.10
2023-12-30T02:15:16.415Z,6.90
2023-12-30T02:17:43.840Z,6.47
2023-12-30T02:20:12.030Z,7.07
2023-12-30T02:22:46.784Z,6.65
2023-12-30T02:25:14.197Z,6.38
2023-12-30T02:27:45.700Z,5.55
2023-12-30T02:30:14.363Z,5.03
2023-12-30T02:32:41.819Z,5.60
2023-12-30T02:35:09.103Z,4.43
2023-12-30T02:37:36.038Z,5.00
2023-12-30T02:40:03.153Z,5.15
2023-12-30T02:42:30.157Z,5.53
2023-12-30T02:44:57.954Z,5.60
2023-12-30T02:47:25.259Z,5.82
2023-12-30T02:49:52.217Z,6.05
2023-12-30T02:52:19.323Z,6.90
2023-12-30T02:54:46.259Z,6.75
2023-12-30T02:57:13.057Z,7.07
2023-12-30T02:59:40.248Z,7.32
2023-12-30T03:02:07.392Z,7.57
2023-12-30T03:04:34.376Z,6.88
2023-12-30T03:07:01.403Z,6.70
2023-12-30T03:09:28.191Z,5.70
2023-12-30T03:11:55.066Z,6.00
2023-12-30T03:14:22.013Z,5.82
2023-12-30T03:16:51.521Z,5.93
2023-12-30T03:19:18.572Z,5.75
2023-12-30T03:21:49.458Z,5.88
2023-12-30T03:24:16.420Z,5.88
2023-12-30T03:26:44.392Z,5.00
2023-12-30T03:29:11.282Z,4.93
2023-12-30T03:31:38.068Z,5.32
2023-12-30T03:34:05.477Z,5.80
2023-12-30T03:36:32.353Z,5.00
2023-12-30T03:39:00.119Z,4.97
2023-12-30T03:41:26.903Z,4.82
2023-12-30T03:43:54.150Z,5.35
2023-12-30T03:46:21.287Z,4.65
2023-12-30T03:48:48.334Z,5.32
2023-12-30T03:51:15.268Z,5.32
2023-12-30T03:53:42.371Z,5.18
2023-12-30T03:56:09.224Z,5.40
2023-12-30T03:58:36.502Z,5.35
2023-12-30T04:01:04.379Z,7.38
2023-12-30T04:03:31.285Z,6.20
2023-12-30T04:05:58.075Z,6.85
2023-12-30T04:08:25.005Z,6.28
2023-12-30T04:10:52.258Z,5.72
2023-12-30T04:13:19.338Z,5.82
2023-12-30T04:15:46.614Z,5.40
2023-12-30T04:18:13.968Z,5.32
2023-12-30T04:20:40.933Z,5.13
2023-12-30T04:23:07.815Z,4.55
2023-12-30T04:25:35.008Z,4.57
2023-12-30T04:28:01.922Z,4.28
2023-12-30T04:30:28.804Z,4.25
2023-12-30T04:32:56.322Z,4.75
2023-12-30T04:35:24.034Z,5.13
2023-12-30T04:37:50.872Z,4.72
2023-12-30T04:40:17.754Z,4.57
2023-12-30T04:42:44.560Z,4.07
2023-12-30T04:45:14.199Z,4.20
2023-12-30T04:47:41.898Z,4.03
2023-12-30T04:50:09.981Z,3.67
2023-12-30T04:52:37.026Z,4.22
2023-12-30T04:55:04.431Z,3.80
2023-12-30T04:57:31.794Z,3.65
2023-12-30T04:59:59.156Z,4.18
2023-12-30T05:02:26.303Z,3.90
2023-12-30T05:04:53.312Z,3.88
2023-12-30T05:07:20.048Z,3.60
2023-12-30T05:09:47.229Z,4.03
2023-12-30T05:12:14.508Z,4.03
2023-12-30T05:14:41.308Z,3.17
2023-12-30T05:17:08.102Z,3.88
2023-12-30T05:19:35.563Z,3.53
2023-12-30T05:22:02.549Z,3.88
2023-12-30T05:24:29.608Z,3.42
2023-12-30T05:26:56.377Z,6.10
2023-12-30T05:29:24.079Z,8.63
2023-12-30T05:31:51.198Z,8.40
2023-12-30T05:34:20.267Z,11.90
2023-12-30T05:36:47.191Z,12.02
2023-12-30T05:39:15.921Z,10.15
2023-12-30T05:41:42.902Z,10.27
2023-12-30T05:44:09.809Z,9.45
2023-12-30T05:46:36.802Z,6.45
2023-12-30T05:49:04.100Z,4.45
2023-12-30T05:51:31.234Z,4.07
2023-12-30T05:53:58.002Z,4.47
2023-12-30T05:56:26.054Z,4.45
2023-12-30T05:58:54.089Z,4.35
2023-12-30T06:01:21.407Z,4.05
2023-12-30T06:03:48.501Z,5.13
2023-12-30T06:06:15.857Z,5.15
2023-12-30T06:08:44.080Z,7.22
2023-12-30T06:11:12.274Z,7.15
2023-12-30T06:13:42.038Z,8.50
2023-12-30T06:16:15.578Z,8.32
2023-12-30T06:21:09.341Z,9.48
2023-12-30T06:23:36.223Z,8.77
2023-12-30T06:26:03.188Z,8.98
2023-12-30T06:28:30.366Z,9.15
2023-12-30T06:30:57.504Z,8.63
2023-12-30T06:33:25.448Z,9.38
2023-12-30T06:35:52.434Z,8.93
2023-12-30T06:38:19.379Z,7.90
2023-12-30T06:40:49.002Z,8.05
2023-12-30T06:43:16.253Z,7.13
2023-12-30T06:45:43.007Z,8.00
2023-12-30T06:48:10.371Z,6.72
2023-12-30T06:50:37.189Z,6.18
2023-12-30T06:53:04.382Z,5.28
2023-12-30T06:55:38.210Z,5.88
2023-12-30T06:58:09.642Z,5.35
2023-12-30T07:00:37.057Z,4.82
2023-12-30T07:03:04.859Z,4.65
2023-12-30T07:05:37.986Z,4.82
2023-12-30T07:08:08.922Z,5.05
2023-12-30T07:10:37.250Z,4.80
2023-12-30T07:13:04.598Z,5.43
2023-12-30T07:15:31.563Z,4.78
2023-12-30T07:17:59.088Z,4.57
2023-12-30T07:20:27.343Z,4.45
2023-12-30T07:22:54.594Z,4.30
2023-12-30T07:25:21.335Z,4.60
2023-12-30T07:27:48.559Z,4.47
2023-12-30T07:30:16.527Z,4.55
2023-12-30T07:32:43.874Z,3.90
2023-12-30T07:35:11.574Z,4.40
2023-12-30T07:37:39.217Z,4.47
2023-12-30T07:40:10.294Z,4.40
2023-12-30T07:42:40.340Z,4.43
2023-12-30T07:45:08.343Z,4.32
2023-12-30T07:47:35.547Z,5.20
2023-12-30T07:50:02.574Z,4.25
2023-12-30T07:52:29.474Z,4.45
2023-12-30T07:54:56.337Z,4.65
2023-12-30T07:57:23.924Z,4.60
2023-12-30T07:59:53.386Z,4.90
2023-12-30T08:02:20.484Z,4.75
2023-12-30T08:04:47.290Z,4.47
2023-12-30T08:07:15.840Z,4.85
2023-12-30T08:09:45.108Z,4.60
2023-12-30T08:12:12.904Z,5.25
2023-12-30T08:14:39.856Z,4.90
2023-12-30T08:17:06.757Z,3.85
2023-12-30T08:19:33.622Z,4.93
2023-12-30T08:22:00.771Z,3.90
2023-12-30T08:24:29.599Z,4.10
2023-12-30T08:26:57.574Z,4.47
2023-12-30T08:29:24.356Z,4.75
2023-12-30T08:31:51.279Z,4.60
2023-12-30T08:34:18.731Z,4.35
2023-12-30T08:36:46.141Z,4.60
2023-12-30T08:39:13.513Z,4.78
2023-12-30T08:41:41.780Z,4.90
2023-12-30T08:44:12.532Z,4.70
2023-12-30T08:46:39.413Z,4.57
2023-12-30T08:49:09.825Z,4.43
2023-12-30T08:51:37.850Z,4.97
2023-12-30T08:54:04.830Z,5.25
2023-12-30T08:56:33.691Z,4.70
2023-12-30T08:59:01.707Z,4.68
2023-12-30T09:01:28.598Z,4.50
2023-12-30T09:03:56.141Z,4.72
2023-12-30T09:06:23.215Z,4.30
2023-12-30T09:08:50.065Z,5.00
2023-12-30T09:11:21.294Z,5.10
2023-12-30T09:13:50.036Z,4.45
2023-12-30T09:16:17.149Z,4.90
2023-12-30T09:18:44.348Z,4.90
2023-12-30T09:21:11.365Z,4.43
2023-12-30T09:23:38.854Z,5.28
2023-12-30T09:26:06.315Z,4.43
2023-12-30T09:28:34.692Z,3.97
2023-12-30T09:31:02.521Z,4.40
2023-12-30T09:33:29.710Z,4.70
2023-12-30T09:35:57.143Z,5.18
2023-12-30T09:38:25.966Z,5.50
2023-12-30T09:40:55.883Z,5.20
2023-12-30T09:43:28.013Z,4.38
2023-12-30T09:45:57.738Z,4.88
2023-12-30T09:48:27.034Z,6.30
2023-12-30T09:50:55.515Z,5.32
2023-12-30T09:53:24.430Z,6.05
2023-12-30T09:55:52.521Z,6.75
2023-12-30T09:58:20.567Z,5.95
2023-12-30T10:00:51.241Z,6.82
2023-12-30T10:03:23.060Z,6.53
2023-12-30T10:05:53.657Z,7.65
2023-12-30T10:08:22.024Z,6.80
2023-12-30T10:10:50.876Z,7.70
2023-12-30T10:13:23.135Z,7.38
2023-12-30T10:15:54.689Z,7.85
2023-12-30T10:18:47.714Z,9.45
2023-12-30T10:21:17.927Z,9.50
2023-12-30T10:23:44.973Z,9.45
2023-12-30T10:26:18.271Z,8.98
2023-12-30T10:28:45.789Z,8.70
2023-12-30T10:31:21.875Z,8.02
2023-12-30T10:33:49.800Z,8.60
2023-12-30T10:36:28.033Z,8.57
2023-12-30T10:39:07.395Z,8.65
2023-12-30T10:41:34.167Z,8.35
2023-12-30T10:44:00.926Z,8.32
2023-12-30T10:46:28.743Z,8.25
2023-12-30T10:49:05.382Z,7.85
2023-12-30T10:51:35.438Z,7.90
2023-12-30T10:54:09.095Z,7.68
2023-12-30T10:56:43.327Z,7.97
2023-12-30T10:59:13.502Z,8.30
2023-12-30T11:01:41.812Z,7.85
2023-12-30T11:04:13.494Z,8.07
2023-12-30T11:06:54.502Z,8.52
2023-12-30T11:09:28.720Z,9.13
2023-12-30T11:12:01.180Z,8.93
2023-12-30T11:14:28.144Z,10.13
2023-12-30T11:16:57.004Z,10.43
2023-12-30T11:19:32.542Z,10.35
2023-12-30T11:22:06.032Z,9.20
2023-12-30T11:27:00.075Z,8.25
2023-12-30T11:29:29.303Z,8.40
2023-12-30T11:31:58.156Z,8.07
2023-12-30T11:34:26.019Z,7.32
2023-12-30T11:36:59.110Z,6.90
2023-12-30T11:39:33.307Z,6.10
2023-12-30T11:42:01.475Z,6.85
2023-12-30T11:44:29.148Z,5.93
2023-12-30T11:46:58.692Z,6.55
2023-12-30T11:49:29.594Z,6.88
2023-12-30T11:52:06.417Z,6.55
2023-12-30T11:54:34.230Z,7.55
2023-12-30T11:57:01.404Z,7.60
2023-12-30T11:59:28.142Z,6.68
2023-12-30T12:02:07.770Z,6.20
2023-12-30T12:04:37.186Z,6.32
2023-12-30T12:07:05.295Z,6.18
2023-12-30T12:09:32.019Z,6.32
2023-12-30T12:11:58.834Z,6.03
2023-12-30T12:14:26.324Z,7.05
2023-12-30T12:16:53.102Z,7.40
2023-12-30T12:19:20.082Z,7.28
2023-12-30T12:21:47.093Z,7.47
2023-12-30T12:24:13.871Z,7.50
2023-12-30T12:26:41.206Z,8.23
2023-12-30T12:29:08.034Z,7.75
2023-12-30T12:31:34.804Z,7.75
2023-12-30T12:34:20.264Z,7.18
2023-12-30T12:36:47.391Z,7.35
2023-12-30T12:39:15.035Z,7.05
2023-12-30T12:41:41.921Z,6.32
2023-12-30T12:44:08.782Z,5.88
2023-12-30T12:46:38.503Z,5.95
2023-12-30T12:49:05.333Z,5.57
2023-12-30T12:51:33.546Z,5.75
2023-12-30T12:54:00.332Z,4.60
2023-12-30T12:56:27.191Z,3.85
2023-12-30T12:58:54.227Z,3.67
2023-12-30T13:01:22.035Z,3.67
2023-12-30T13:03:49.164Z,3.63
2023-12-30T13:06:17.276Z,3.40
2023-12-30T13:08:45.286Z,3.28
2023-12-30T13:11:14.533Z,2.88
2023-12-30T13:13:41.937Z,3.08
2023-12-30T13:16:10.456Z,3.30
2023-12-30T13:18:39.338Z,3.25
2023-12-30T13:21:07.513Z,3.38
2023-12-30T13:23:35.037Z,3.35
2023-12-30T13:26:04.620Z,3.50
2023-12-30T13:28:32.255Z,3.17
2023-12-30T13:31:01.596Z,3.08
2023-12-30T13:33:36.798Z,3.10
2023-12-30T13:36:07.574Z,3.67
2023-12-30T13:38:40.668Z,2.85
2023-12-30T13:41:07.415Z,2.92
2023-12-30T13:43:34.176Z,2.80
2023-12-30T13:46:21.011Z,2.75
2023-12-30T13:49:19.720Z,2.55
2023-12-30T13:51:51.775Z,2.67
2023-12-30T13:54:20.882Z,2.70
2023-12-30T13:56:51.428Z,2.50
2023-12-30T13:59:20.129Z,2.88
2023-12-30T14:01:47.263Z,2.70
2023-12-30T14:04:17.657Z,2.65
2023-12-30T14:06:45.184Z,2.50
2023-12-30T14:09:51.039Z,2.72
2023-12-30T14:12:19.502Z,2.53
2023-12-30T14:14:56.626Z,2.50
2023-12-30T14:17:31.117Z,2.38
2023-12-30T14:20:00.073Z,2.08
2023-12-30T14:22:27.813Z,2.40
2023-12-30T14:24:54.614Z,2.63
2023-12-30T14:27:22.211Z,2.55
2023-12-30T14:29:52.707Z,3.00
2023-12-30T14:32:20.246Z,2.20
2023-12-30T14:34:47.190Z,2.30
2023-12-30T14:37:14.128Z,2.60
2023-12-30T14:39:40.892Z,2.53
2023-12-30T14:42:07.739Z,2.47
2023-12-30T14:44:34.800Z,2.55
2023-12-30T14:47:02.290Z,2.63
2023-12-30T14:49:29.863Z,2.80
2023-12-30T14:51:56.794Z,2.80
2023-12-30T14:54:23.790Z,2.33
2023-12-30T14:56:50.920Z,2.67
2023-12-30T14:59:17.844Z,2.78
2023-12-30T15:01:44.968Z,2.90
2023-12-30T15:04:12.189Z,2.58
2023-12-30T15:06:39.243Z,2.65
2023-12-30T15:09:09.984Z,2.70
2023-12-30T15:11:37.304Z,3.13
2023-12-30T15:14:05.524Z,3.08
2023-12-30T15:16:32.497Z,2.70
2023-12-30T15:18:59.509Z,3.30
2023-12-30T15:21:26.447Z,2.70
2023-12-30T15:23:53.955Z,3.28
2023-12-30T15:26:23.392Z,3.10
2023-12-30T15:28:50.215Z,2.95
2023-12-30T15:31:18.022Z,3.50
2023-12-30T15:33:45.004Z,2.97
2023-12-30T15:36:15.997Z,3.42
2023-12-30T15:38:42.874Z,3.00
2023-12-30T15:41:09.731Z,3.70
2023-12-30T15:43:36.546Z,3.42
2023-12-30T15:46:04.797Z,3.60
2023-12-30T15:48:31.806Z,4.25
2023-12-30T15:50:58.971Z,4.05
2023-12-30T15:53:25.753Z,3.40
2023-12-30T15:55:52.701Z,3.92
2023-12-30T15:58:20.619Z,3.75
2023-12-30T16:00:47.497Z,4.45
2023-12-30T16:03:15.471Z,4.60
2023-12-30T16:05:42.916Z,4.82
2023-12-30T16:08:11.046Z,5.38
2023-12-30T16:10:38.134Z,5.57
2023-12-30T16:13:05.290Z,5.55
2023-12-30T16:15:35.368Z,6.28
2023-12-30T16:18:04.567Z,5.50
2023-12-30T16:20:31.350Z,6.07
2023-12-30T16:22:58.359Z,6.68
2023-12-30T16:25:25.467Z,6.80
2023-12-30T16:27:53.128Z,6.10
2023-12-30T16:30:20.046Z,6.43
2023-12-30T16:32:47.129Z,6.70
2023-12-30T16:35:14.060Z,7.18
2023-12-30T16:37:41.008Z,6.47
2023-12-30T16:40:09.862Z,6.53
2023-12-30T16:42:37.121Z,6.82
2023-12-30T16:45:04.112Z,7.20
2023-12-30T16:47:31.162Z,6.82
2023-12-30T16:50:00.313Z,7.10
2023-12-30T16:52:27.181Z,6.93
2023-12-30T16:54:53.936Z,7.93
2023-12-30T16:57:20.835Z,7.15
2023-12-30T16:59:48.853Z,7.68
2023-12-30T17:02:16.210Z,7.13
2023-12-30T17:04:43.259Z,6.57
2023-12-30T17:07:10.075Z,7.45
2023-12-30T17:09:37.075Z,7.43
2023-12-30T17:12:04.077Z,6.93
2023-12-30T17:14:31.841Z,6.82
2023-12-30T17:16:59.725Z,6.22
2023-12-30T17:19:26.982Z,7.28
2023-12-30T17:21:53.849Z,8.23
2023-12-30T17:24:20.523Z,8.10
2023-12-30T17:26:47.455Z,8.43
2023-12-30T17:29:14.198Z,8.13
2023-12-30T17:31:40.958Z,8.00
2023-12-30T17:34:07.751Z,7.53
2023-12-30T17:36:34.477Z,8.90
2023-12-30T17:39:01.562Z,8.32
2023-12-30T17:41:28.374Z,8.02
2023-12-30T17:43:55.517Z,7.95
2023-12-30T17:46:23.229Z,7.10
2023-12-30T17:48:50.034Z,5.75
2023-12-30T17:51:16.940Z,4.63
2023-12-30T17:53:43.754Z,6.50
2023-12-30T17:56:10.782Z,11.55
2023-12-30T17:58:37.595Z,21.10
2023-12-30T18:01:04.579Z,29.80
2023-12-30T18:03:31.478Z,33.72
2023-12-30T18:05:58.273Z,32.15
2023-12-30T18:08:25.115Z,23.25
2023-12-30T18:10:52.197Z,14.73
2023-12-30T18:13:20.675Z,13.63
2023-12-30T18:15:47.439Z,12.88
2023-12-30T18:18:14.658Z,18.10
2023-12-30T18:20:41.611Z,18.02
2023-12-30T18:23:08.569Z,14.07
2023-12-30T18:25:35.940Z,14.60
2023-12-30T18:28:03.143Z,17.73
2023-12-30T18:30:30.204Z,19.20
2023-12-30T18:32:57.068Z,19.45
2023-12-30T18:35:24.360Z,19.35
2023-12-30T18:37:51.316Z,18.45
2023-12-30T18:40:19.825Z,20.13
2023-12-30T18:42:46.682Z,21.23
2023-12-30T18:45:13.702Z,19.15
2023-12-30T18:47:40.624Z,19.73
2023-12-30T18:50:07.885Z,19.50
2023-12-30T18:52:34.867Z,23.25
2023-12-30T18:55:01.769Z,22.88
2023-12-30T18:57:28.509Z,22.50
2023-12-30T18:59:56.077Z,24.08
2023-12-30T19:02:23.281Z,21.75
2023-12-30T19:04:50.162Z,22.55
2023-12-30T19:07:17.135Z,22.75
2023-12-30T19:09:47.743Z,22.60
2023-12-30T19:12:14.877Z,33.45
2023-12-30T19:14:41.622Z,28.92
2023-12-30T19:17:09.994Z,24.33
2023-12-30T19:19:37.646Z,22.95
2023-12-30T19:22:07.783Z,23.33
2023-12-30T19:24:37.847Z,23.98
2023-12-30T19:27:05.168Z,23.38
2023-12-30T19:29:31.958Z,22.35
2023-12-30T19:31:58.664Z,22.73
2023-12-30T19:34:28.042Z,31.88
2023-12-30T19:36:55.298Z,35.05
2023-12-30T19:39:21.992Z,34.55
2023-12-30T19:41:51.603Z,29.23
2023-12-30T19:44:18.560Z,25.25
2023-12-30T19:46:45.666Z,21.65
2023-12-30T19:49:14.336Z,19.23
2023-12-30T19:51:41.169Z,18.38
2023-12-30T19:54:08.093Z,19.65
2023-12-30T19:56:36.549Z,21.08
2023-12-30T19:59:03.930Z,37.13
2023-12-30T20:01:33.925Z,32.42
2023-12-30T20:04:03.472Z,30.30
2023-12-30T20:06:30.346Z,30.85
2023-12-30T20:08:57.178Z,26.75
2023-12-30T20:11:28.179Z,26.20
2023-12-30T20:13:55.481Z,26.55
2023-12-30T20:16:22.239Z,28.85
2023-12-30T20:18:49.056Z,27.95
2023-12-30T20:21:15.751Z,29.05
2023-12-30T20:23:42.615Z,28.98
2023-12-30T20:26:09.565Z,28.13
2023-12-30T20:28:36.602Z,28.33
2023-12-30T20:31:05.614Z,25.55
2023-12-30T20:33:32.841Z,29.23
2023-12-30T20:35:59.677Z,27.23
2023-12-30T20:38:26.861Z,26.27
2023-12-30T20:40:53.791Z,26.98
2023-12-30T20:43:20.729Z,24.98
2023-12-30T20:45:48.831Z,22.98
2023-12-30T20:48:17.201Z,24.67
2023-12-30T20:50:44.047Z,25.20
2023-12-30T20:53:12.174Z,23.73
2023-12-30T20:55:40.127Z,24.25
2023-12-30T20:58:07.598Z,22.55
2023-12-30T21:00:34.544Z,21.90
2023-12-30T21:03:01.998Z,21.23
2023-12-30T21:05:29.079Z,22.08
2023-12-30T21:07:55.798Z,24.30
2023-12-30T21:10:22.620Z,21.52
2023-12-30T21:12:49.318Z,20.88
2023-12-30T21:15:16.212Z,20.33
2023-12-30T21:17:42.986Z,18.83
2023-12-30T21:20:11.315Z,17.30
2023-12-30T21:22:38.705Z,17.13
2023-12-30T21:25:15.479Z,18.17
2023-12-30T21:27:46.334Z,17.05
2023-12-30T21:30:14.120Z,16.20
2023-12-30T21:32:40.994Z,17.60
2023-12-30T21:35:08.986Z,18.80
2023-12-30T21:37:41.923Z,18.73
2023-12-30T21:40:15.410Z,19.27
2023-12-30T21:42:42.273Z,18.83
2023-12-30T21:45:10.639Z,18.83
2023-12-30T21:47:37.559Z,18.27
2023-12-30T21:50:05.254Z,18.60
2023-12-30T21:52:34.314Z,18.42
2023-12-30T21:55:02.532Z,17.27
2023-12-30T21:57:29.230Z,18.23
2023-12-30T21:59:56.109Z,16.00
2023-12-30T22:02:22.873Z,17.08
2023-12-30T22:04:50.276Z,16.08
2023-12-30T22:07:17.181Z,17.60
2023-12-30T22:09:44.247Z,18.63
2023-12-30T22:12:11.078Z,18.70
2023-12-30T22:14:37.840Z,15.77
2023-12-30T22:17:05.969Z,15.63
2023-12-30T22:19:34.156Z,16.67
2023-12-30T22:22:00.993Z,14.27
2023-12-30T22:24:27.724Z,14.25
2023-12-30T22:26:54.559Z,15.05
2023-12-30T22:29:21.252Z,13.98
2023-12-30T22:31:48.173Z,13.20
2023-12-30T22:34:15.010Z,13.20
2023-12-30T22:36:41.863Z,11.57
2023-12-30T22:39:08.678Z,11.88
2023-12-30T22:41:38.802Z,12.57
2023-12-30T22:44:05.802Z,11.98
2023-12-30T22:46:32.719Z,10.82
2023-12-30T22:48:59.545Z,10.13
2023-12-30T22:51:26.420Z,10.10
2023-12-30T22:53:53.223Z,10.38
2023-12-30T22:56:20.163Z,10.45
2023-12-30T22:58:46.996Z,10.13
2023-12-30T23:01:18.174Z,10.23
2023-12-30T23:03:45.657Z,9.15
2023-12-30T23:06:12.693Z,8.35
2023-12-30T23:08:39.570Z,8.95
2023-12-30T23:11:06.521Z,7.88
2023-12-30T23:13:33.761Z,7.65
2023-12-30T23:16:01.743Z,7.80
2023-12-30T23:18:28.742Z,7.22
2023-12-30T23:20:55.868Z,6.82
2023-12-30T23:23:22.773Z,6.70
2023-12-30T23:25:49.810Z,6.15
2023-12-30T23:28:16.738Z,5.43
2023-12-30T23:30:44.025Z,6.00
2023-12-30T23:33:11.254Z,5.78
2023-12-30T23:35:38.063Z,5.07
2023-12-30T23:38:05.178Z,5.20
2023-12-30T23:40:32.044Z,5.00
2023-12-30T23:42:59.197Z,5.22
2023-12-30T23:45:25.941Z,5.05
2023-12-30T23:47:53.172Z,5.55
2023-12-30T23:50:20.126Z,4.78
2023-12-30T23:52:47.554Z,4.60
2023-12-30T23:55:14.539Z,4.80
2023-12-30T23:57:41.405Z,4.18
